createdAt,value
2023-04-22T00:00:15.653Z,24.34
2023-04-22T00:01:16.652Z,24.32
2023-04-22T00:02:15.756Z,24.35
2023-04-22T00:03:15.930Z,24.35
2023-04-22T00:04:16.036Z,24.35
2023-04-22T00:05:20.231Z,24.35
2023-04-22T00:06:16.619Z,24.32
2023-04-22T00:07:15.703Z,24.34
2023-04-22T00:08:16.631Z,24.34
2023-04-22T00:09:15.588Z,24.35
2023-04-22T00:10:16.618Z,24.34
2023-04-22T00:11:16.611Z,24.34
2023-04-22T00:12:15.588Z,24.34
2023-04-22T00:13:16.580Z,24.32
2023-04-22T00:14:16.549Z,24.32
2023-04-22T00:15:16.560Z,24.32
2023-04-22T00:16:16.657Z,24.32
2023-04-22T00:17:15.528Z,24.32
2023-04-22T00:18:15.565Z,24.32
2023-04-22T00:19:15.650Z,24.32
2023-04-22T00:20:15.562Z,24.32
2023-04-22T00:21:16.510Z,24.34
2023-04-22T00:22:15.534Z,24.34
2023-04-22T00:23:15.525Z,24.32
2023-04-22T00:24:15.504Z,24.32
2023-04-22T00:25:16.508Z,24.35
2023-04-22T00:26:15.489Z,24.32
2023-04-22T00:27:16.520Z,24.30
2023-04-22T00:28:15.498Z,24.31
2023-04-22T00:29:16.554Z,24.31
2023-04-22T00:30:15.515Z,24.32
2023-04-22T00:31:15.563Z,24.34
2023-04-22T00:32:15.547Z,24.31
2023-04-22T00:33:16.564Z,24.32
2023-04-22T00:34:16.604Z,24.31
2023-04-22T00:35:15.591Z,24.31
2023-04-22T00:36:15.601Z,24.30
2023-04-22T00:37:15.631Z,24.31
2023-04-22T00:38:15.655Z,24.32
2023-04-22T00:39:16.628Z,24.31
2023-04-22T00:40:15.691Z,24.32
2023-04-22T00:41:15.694Z,24.31
2023-04-22T00:42:15.686Z,24.32
2023-04-22T00:43:15.698Z,24.31
2023-04-22T00:44:16.732Z,24.30
2023-04-22T00:45:16.737Z,24.30
2023-04-22T00:46:15.775Z,24.30
2023-04-22T00:47:15.799Z,24.30
2023-04-22T00:48:16.792Z,24.32
2023-04-22T00:49:15.850Z,24.30
2023-04-22T00:50:15.859Z,24.30
2023-04-22T00:51:15.869Z,24.31
2023-04-22T00:52:16.876Z,24.30
2023-04-22T00:53:15.880Z,24.30
2023-04-22T00:54:15.892Z,24.30
2023-04-22T00:55:16.907Z,24.31
2023-04-22T00:56:16.910Z,24.31
2023-04-22T00:57:15.983Z,24.31
2023-04-22T00:58:15.958Z,24.30
2023-04-22T00:59:15.981Z,24.30
2023-04-22T01:00:16.003Z,24.31
2023-04-22T01:01:17.032Z,24.31
2023-04-22T01:02:16.156Z,24.27
2023-04-22T01:03:17.253Z,24.28
2023-04-22T01:04:16.346Z,24.28
2023-04-22T01:05:16.050Z,24.28
2023-04-22T01:06:16.105Z,24.28
2023-04-22T01:07:16.100Z,24.28
2023-04-22T01:08:16.119Z,24.31
2023-04-22T01:09:16.127Z,24.30
2023-04-22T01:10:16.130Z,24.27
2023-04-22T01:11:16.182Z,24.28
2023-04-22T01:12:17.179Z,24.31
2023-04-22T01:13:16.216Z,24.28
2023-04-22T01:14:16.202Z,24.28
2023-04-22T01:15:17.230Z,24.27
2023-04-22T01:16:17.269Z,24.28
2023-04-22T01:17:17.250Z,24.28
2023-04-22T01:18:16.279Z,24.28
2023-04-22T01:19:17.288Z,24.28
2023-04-22T01:20:17.305Z,24.28
2023-04-22T01:21:17.328Z,24.28
2023-04-22T01:22:17.363Z,24.28
2023-04-22T01:23:17.400Z,24.28
2023-04-22T01:24:16.373Z,24.28
2023-04-22T01:25:16.422Z,24.27
2023-04-22T01:26:17.417Z,24.28
2023-04-22T01:27:17.433Z,24.28
2023-04-22T01:28:16.451Z,24.27
2023-04-22T01:29:16.482Z,24.27
2023-04-22T01:30:17.514Z,24.27
2023-04-22T01:31:16.505Z,24.25
2023-04-22T01:32:17.641Z,24.30
2023-04-22T01:33:16.576Z,24.27
2023-04-22T01:34:16.561Z,24.28
2023-04-22T01:35:17.596Z,24.28
2023-04-22T01:36:17.633Z,24.28
2023-04-22T01:37:16.640Z,24.27
2023-04-22T01:38:16.643Z,24.28
2023-04-22T01:39:16.729Z,24.27
2023-04-22T01:40:16.669Z,24.25
2023-04-22T01:41:16.701Z,24.28
2023-04-22T01:42:16.713Z,24.27
2023-04-22T01:43:16.730Z,24.27
2023-04-22T01:44:17.778Z,24.28
2023-04-22T01:45:17.772Z,24.27
2023-04-22T01:46:17.868Z,24.27
2023-04-22T01:47:17.781Z,24.25
2023-04-22T01:48:16.909Z,24.27
2023-04-22T01:49:16.870Z,24.25
2023-04-22T01:50:17.872Z,24.27
2023-04-22T01:51:17.893Z,24.25
2023-04-22T01:52:17.897Z,24.27
2023-04-22T01:53:17.906Z,24.27
2023-04-22T01:54:17.070Z,24.25
2023-04-22T01:55:16.934Z,24.27
2023-04-22T01:56:17.968Z,24.27
2023-04-22T01:57:16.996Z,24.27
2023-04-22T01:58:18.022Z,24.25
2023-04-22T01:59:17.039Z,24.25
2023-04-22T02:00:18.047Z,24.27
2023-04-22T02:01:18.126Z,24.25
2023-04-22T02:02:17.138Z,24.25
2023-04-22T02:03:17.226Z,24.27
2023-04-22T02:04:17.172Z,24.27
2023-04-22T02:05:18.180Z,24.24
2023-04-22T02:06:17.188Z,24.23
2023-04-22T02:07:18.195Z,24.24
2023-04-22T02:08:17.224Z,24.24
2023-04-22T02:09:18.259Z,24.25
2023-04-22T02:10:17.262Z,24.23
2023-04-22T02:11:17.276Z,24.24
2023-04-22T02:12:18.287Z,24.25
2023-04-22T02:13:18.327Z,24.24
2023-04-22T02:14:17.346Z,24.25
2023-04-22T02:15:18.359Z,24.25
2023-04-22T02:16:17.408Z,24.25
2023-04-22T02:17:17.403Z,24.20
2023-04-22T02:18:17.451Z,24.23
2023-04-22T02:19:18.498Z,24.24
2023-04-22T02:20:18.540Z,24.24
2023-04-22T02:21:17.500Z,24.24
2023-04-22T02:22:18.518Z,24.24
2023-04-22T02:23:18.525Z,24.25
2023-04-22T02:24:18.559Z,24.23
2023-04-22T02:25:17.580Z,24.24
2023-04-22T02:26:18.626Z,24.24
2023-04-22T02:27:17.617Z,24.21
2023-04-22T02:28:17.638Z,24.24
2023-04-22T02:29:17.660Z,24.23
2023-04-22T02:30:18.690Z,24.23
2023-04-22T02:31:18.730Z,24.23
2023-04-22T02:32:17.712Z,24.21
2023-04-22T02:33:17.729Z,24.23
2023-04-22T02:34:18.761Z,24.24
2023-04-22T02:35:17.776Z,24.24
2023-04-22T02:36:17.785Z,24.23
2023-04-22T02:37:17.799Z,24.24
2023-04-22T02:38:18.828Z,24.23
2023-04-22T02:39:17.874Z,24.24
2023-04-22T02:40:17.872Z,24.23
2023-04-22T02:41:17.911Z,24.23
2023-04-22T02:42:18.952Z,24.23
2023-04-22T02:43:17.935Z,24.24
2023-04-22T02:44:17.958Z,24.23
2023-04-22T02:45:18.985Z,24.24
2023-04-22T02:46:18.029Z,24.24
2023-04-22T02:47:18.998Z,24.21
2023-04-22T02:48:18.067Z,24.23
2023-04-22T02:49:18.070Z,24.25
2023-04-22T02:50:18.080Z,24.21
2023-04-22T02:51:18.109Z,24.23
2023-04-22T02:52:18.131Z,24.25
2023-04-22T02:53:18.151Z,24.23
2023-04-22T02:54:19.176Z,24.24
2023-04-22T02:55:19.232Z,24.24
2023-04-22T02:56:19.225Z,24.21
2023-04-22T02:57:18.249Z,24.23
2023-04-22T02:58:18.301Z,24.24
2023-04-22T02:59:18.303Z,24.24
2023-04-22T03:00:18.322Z,24.21
2023-04-22T03:01:19.376Z,24.20
2023-04-22T03:02:19.431Z,24.23
2023-04-22T03:03:18.501Z,24.21
2023-04-22T03:04:19.539Z,24.20
2023-04-22T03:05:18.448Z,24.19
2023-04-22T03:06:19.487Z,24.21
2023-04-22T03:07:18.510Z,24.20
2023-04-22T03:08:19.524Z,24.20
2023-04-22T03:09:18.554Z,24.20
2023-04-22T03:10:18.573Z,24.20
2023-04-22T03:11:18.624Z,24.21
2023-04-22T03:12:18.635Z,24.21
2023-04-22T03:13:19.786Z,24.21
2023-04-22T03:14:18.719Z,24.20
2023-04-22T03:15:21.613Z,24.20
2023-04-22T03:16:19.748Z,24.21
2023-04-22T03:17:19.759Z,24.19
2023-04-22T03:18:19.746Z,24.21
2023-04-22T03:19:19.714Z,24.19
2023-04-22T03:20:19.666Z,24.21
2023-04-22T03:21:19.675Z,24.19
2023-04-22T03:22:19.668Z,24.17
2023-04-22T03:23:19.650Z,24.19
2023-04-22T03:24:19.683Z,24.19
2023-04-22T03:25:18.651Z,24.21
2023-04-22T03:26:18.624Z,24.20
2023-04-22T03:27:18.624Z,24.20
2023-04-22T03:28:18.623Z,24.21
2023-04-22T03:29:18.625Z,24.20
2023-04-22T03:30:18.621Z,24.20
2023-04-22T03:31:18.629Z,24.19
2023-04-22T03:32:19.726Z,24.21
2023-04-22T03:33:18.692Z,24.19
2023-04-22T03:34:18.588Z,24.19
2023-04-22T03:35:18.581Z,24.20
2023-04-22T03:36:18.571Z,24.21
2023-04-22T03:37:19.560Z,24.21
2023-04-22T03:38:18.543Z,24.19
2023-04-22T03:39:18.555Z,24.23
2023-04-22T03:40:18.552Z,24.20
2023-04-22T03:41:18.540Z,24.20
2023-04-22T03:42:18.525Z,24.19
2023-04-22T03:43:19.531Z,24.17
2023-04-22T03:44:18.517Z,24.17
2023-04-22T03:45:19.523Z,24.17
2023-04-22T03:46:19.621Z,24.20
2023-04-22T03:47:19.486Z,24.20
2023-04-22T03:48:19.482Z,24.17
2023-04-22T03:49:19.471Z,24.19
2023-04-22T03:50:18.465Z,24.19
2023-04-22T03:51:18.485Z,24.17
2023-04-22T03:52:18.479Z,24.20
2023-04-22T03:53:19.471Z,24.17
2023-04-22T03:54:18.436Z,24.19
2023-04-22T03:55:19.464Z,24.17
2023-04-22T03:56:18.429Z,24.20
2023-04-22T03:57:18.422Z,24.19
2023-04-22T03:58:19.416Z,24.19
2023-04-22T03:59:19.393Z,24.20
2023-04-22T04:00:18.391Z,24.19
2023-04-22T04:01:18.443Z,24.19
2023-04-22T04:02:19.568Z,24.19
2023-04-22T04:03:18.732Z,24.17
2023-04-22T04:04:18.692Z,24.19
2023-04-22T04:05:18.673Z,24.17
2023-04-22T04:06:19.584Z,24.19
2023-04-22T04:07:18.642Z,24.20
2023-04-22T04:08:18.635Z,24.17
2023-04-22T04:09:18.676Z,24.17
2023-04-22T04:10:18.699Z,24.17
2023-04-22T04:11:18.739Z,24.17
2023-04-22T04:12:19.773Z,24.17
2023-04-22T04:13:18.808Z,24.19
2023-04-22T04:14:18.855Z,24.16
2023-04-22T04:15:18.890Z,24.17
2023-04-22T04:16:18.972Z,24.16
2023-04-22T04:17:18.935Z,24.17
2023-04-22T04:18:19.966Z,24.17
2023-04-22T04:19:19.959Z,24.16
2023-04-22T04:20:20.017Z,24.14
2023-04-22T04:21:19.686Z,24.16
2023-04-22T04:22:20.049Z,24.19
2023-04-22T04:23:19.095Z,24.16
2023-04-22T04:24:19.134Z,24.17
2023-04-22T04:25:19.171Z,24.17
2023-04-22T04:26:19.181Z,24.16
2023-04-22T04:27:19.213Z,24.19
2023-04-22T04:28:20.249Z,24.16
2023-04-22T04:29:20.280Z,24.19
2023-04-22T04:30:20.317Z,24.17
2023-04-22T04:31:20.391Z,24.16
2023-04-22T04:32:19.391Z,24.16
2023-04-22T04:33:20.404Z,24.19
2023-04-22T04:34:20.557Z,24.16
2023-04-22T04:35:19.471Z,24.14
2023-04-22T04:36:19.516Z,24.16
2023-04-22T04:37:19.554Z,24.19
2023-04-22T04:38:20.583Z,24.17
2023-04-22T04:39:19.616Z,24.16
2023-04-22T04:40:19.658Z,24.17
2023-04-22T04:41:20.673Z,24.16
2023-04-22T04:42:19.728Z,24.14
2023-04-22T04:43:20.745Z,24.19
2023-04-22T04:44:19.765Z,24.16
2023-04-22T04:45:19.818Z,24.16
2023-04-22T04:46:19.893Z,24.16
2023-04-22T04:47:20.897Z,24.14
2023-04-22T04:48:20.929Z,24.14
2023-04-22T04:49:20.977Z,24.16
2023-04-22T04:50:21.025Z,24.17
2023-04-22T04:51:20.605Z,24.16
2023-04-22T04:52:21.056Z,24.16
2023-04-22T04:53:21.086Z,24.17
2023-04-22T04:54:20.106Z,24.17
2023-04-22T04:55:20.145Z,24.16
2023-04-22T04:56:21.177Z,24.19
2023-04-22T04:57:22.172Z,24.16
2023-04-22T04:58:20.241Z,24.17
2023-04-22T04:59:20.283Z,24.16
2023-04-22T05:00:20.319Z,24.17
2023-04-22T05:01:21.396Z,24.17
2023-04-22T05:02:20.500Z,24.16
2023-04-22T05:03:20.657Z,24.20
2023-04-22T05:04:20.559Z,24.17
2023-04-22T05:05:20.465Z,24.16
2023-04-22T05:06:20.575Z,24.16
2023-04-22T05:07:20.532Z,24.17
2023-04-22T05:08:20.574Z,24.19
2023-04-22T05:09:20.598Z,24.17
2023-04-22T05:10:21.655Z,24.17
2023-04-22T05:11:21.669Z,24.17
2023-04-22T05:12:21.684Z,24.17
2023-04-22T05:13:20.706Z,24.16
2023-04-22T05:14:21.743Z,24.16
2023-04-22T05:15:20.795Z,24.17
2023-04-22T05:16:21.856Z,24.17
2023-04-22T05:17:20.890Z,24.17
2023-04-22T05:18:20.869Z,24.16
2023-04-22T05:19:20.890Z,24.17
2023-04-22T05:20:21.948Z,24.17
2023-04-22T05:21:21.961Z,24.19
2023-04-22T05:22:21.007Z,24.17
2023-04-22T05:23:22.025Z,24.19
2023-04-22T05:24:21.058Z,24.19
2023-04-22T05:25:21.091Z,24.17
2023-04-22T05:26:21.131Z,24.16
2023-04-22T05:27:21.150Z,24.19
2023-04-22T05:28:21.167Z,24.19
2023-04-22T05:29:21.199Z,24.19
2023-04-22T05:30:21.250Z,24.19
2023-04-22T05:31:22.305Z,24.17
2023-04-22T05:32:21.379Z,24.19
2023-04-22T05:33:21.340Z,24.17
2023-04-22T05:34:22.359Z,24.17
2023-04-22T05:35:21.385Z,24.20
2023-04-22T05:36:22.404Z,24.19
2023-04-22T05:37:22.420Z,24.19
2023-04-22T05:38:21.465Z,24.21
2023-04-22T05:39:22.491Z,24.21
2023-04-22T05:40:21.526Z,24.20
2023-04-22T05:41:22.530Z,24.19
2023-04-22T05:42:22.570Z,24.20
2023-04-22T05:43:22.598Z,24.19
2023-04-22T05:44:21.610Z,24.21
2023-04-22T05:45:21.655Z,24.21
2023-04-22T05:46:22.735Z,24.19
2023-04-22T05:47:21.726Z,24.21
2023-04-22T05:48:22.756Z,24.21
2023-04-22T05:49:21.772Z,24.23
2023-04-22T05:50:23.559Z,24.21
2023-04-22T05:51:22.832Z,24.20
2023-04-22T05:52:21.871Z,24.23
2023-04-22T05:53:21.908Z,24.23
2023-04-22T05:54:21.965Z,24.23
2023-04-22T05:55:23.044Z,24.20
2023-04-22T05:56:23.044Z,24.20
2023-04-22T05:57:22.044Z,24.23
2023-04-22T05:58:22.074Z,24.21
2023-04-22T05:59:23.114Z,24.24
2023-04-22T06:00:22.128Z,24.23
2023-04-22T06:01:22.170Z,24.24
2023-04-22T06:02:22.294Z,24.21
2023-04-22T06:03:23.514Z,24.21
2023-04-22T06:04:22.560Z,24.21
2023-04-22T06:05:22.406Z,24.23
2023-04-22T06:06:22.314Z,24.21
2023-04-22T06:07:23.342Z,24.23
2023-04-22T06:08:23.368Z,24.24
2023-04-22T06:09:23.435Z,24.21
2023-04-22T06:10:22.437Z,24.23
2023-04-22T06:11:23.470Z,24.23
2023-04-22T06:12:22.478Z,24.21
2023-04-22T06:13:22.520Z,24.23
2023-04-22T06:14:23.517Z,24.24
2023-04-22T06:15:22.574Z,24.21
2023-04-22T06:16:23.572Z,24.24
2023-04-22T06:17:23.655Z,24.24
2023-04-22T06:18:22.637Z,24.23
2023-04-22T06:19:22.641Z,24.24
2023-04-22T06:20:23.706Z,24.23
2023-04-22T06:21:22.691Z,24.24
2023-04-22T06:22:22.717Z,24.24
2023-04-22T06:23:22.747Z,24.23
2023-04-22T06:24:22.769Z,24.25
2023-04-22T06:25:23.847Z,24.25
2023-04-22T06:26:22.828Z,24.24
2023-04-22T06:27:23.846Z,24.25
2023-04-22T06:28:22.857Z,24.25
2023-04-22T06:29:23.894Z,24.25
2023-04-22T06:30:23.905Z,24.25
2023-04-22T06:31:23.000Z,24.25
2023-04-22T06:32:22.961Z,24.23
2023-04-22T06:33:22.975Z,24.24
2023-04-22T06:34:22.982Z,24.27
2023-04-22T06:35:24.048Z,24.25
2023-04-22T06:36:23.016Z,24.27
2023-04-22T06:37:24.053Z,24.27
2023-04-22T06:38:23.084Z,24.25
2023-04-22T06:39:24.082Z,24.27
2023-04-22T06:40:23.129Z,24.28
2023-04-22T06:41:24.166Z,24.27
2023-04-22T06:42:24.155Z,24.28
2023-04-22T06:43:24.164Z,24.27
2023-04-22T06:44:23.202Z,24.28
2023-04-22T06:45:24.225Z,24.28
2023-04-22T06:46:23.280Z,24.27
2023-04-22T06:47:23.322Z,24.30
2023-04-22T06:48:24.267Z,24.28
2023-04-22T06:49:24.303Z,24.30
2023-04-22T06:50:24.309Z,24.31
2023-04-22T06:51:24.325Z,24.31
2023-04-22T06:52:24.201Z,24.31
2023-04-22T06:53:23.353Z,24.28
2023-04-22T06:54:24.354Z,24.30
2023-04-22T06:55:24.375Z,24.32
2023-04-22T06:56:23.380Z,24.31
2023-04-22T06:57:24.437Z,24.30
2023-04-22T06:58:24.418Z,24.32
2023-04-22T06:59:24.443Z,24.30
2023-04-22T07:00:23.458Z,24.32
2023-04-22T07:01:24.497Z,24.31
2023-04-22T07:02:24.544Z,24.32
2023-04-22T07:03:23.900Z,24.31
2023-04-22T07:04:23.582Z,24.32
2023-04-22T07:05:23.546Z,24.31
2023-04-22T07:06:23.607Z,24.31
2023-04-22T07:07:24.556Z,24.32
2023-04-22T07:08:24.576Z,24.34
2023-04-22T07:09:23.591Z,24.31
2023-04-22T07:10:24.604Z,24.31
2023-04-22T07:11:24.652Z,24.32
2023-04-22T07:12:24.630Z,24.31
2023-04-22T07:13:23.659Z,24.31
2023-04-22T07:14:23.634Z,24.32
2023-04-22T07:15:24.649Z,24.34
2023-04-22T07:16:24.744Z,24.31
2023-04-22T07:17:24.745Z,24.35
2023-04-22T07:18:24.668Z,24.32
2023-04-22T07:19:24.690Z,24.34
2023-04-22T07:20:23.696Z,24.34
2023-04-22T07:21:23.720Z,24.34
2023-04-22T07:22:23.736Z,24.32
2023-04-22T07:23:24.728Z,24.32
2023-04-22T07:24:24.736Z,24.35
2023-04-22T07:25:24.767Z,24.35
2023-04-22T07:26:23.760Z,24.34
2023-04-22T07:27:23.770Z,24.35
2023-04-22T07:28:23.774Z,24.34
2023-04-22T07:29:23.809Z,24.34
2023-04-22T07:30:23.791Z,24.35
2023-04-22T07:31:23.843Z,24.35
2023-04-22T07:32:24.884Z,24.35
2023-04-22T07:33:23.807Z,24.37
2023-04-22T07:34:24.816Z,24.37
2023-04-22T07:35:24.829Z,24.37
2023-04-22T07:36:24.849Z,24.35
2023-04-22T07:37:23.861Z,24.38
2023-04-22T07:38:23.867Z,24.35
2023-04-22T07:39:24.872Z,24.37
2023-04-22T07:40:23.875Z,24.38
2023-04-22T07:41:24.885Z,24.37
2023-04-22T07:42:24.916Z,24.37
2023-04-22T07:43:23.902Z,24.37
2023-04-22T07:44:24.936Z,24.37
2023-04-22T07:45:23.959Z,24.38
2023-04-22T07:46:24.945Z,24.34
2023-04-22T07:47:24.972Z,24.35
2023-04-22T07:48:23.978Z,24.35
2023-04-22T07:49:23.958Z,24.35
2023-04-22T07:50:25.050Z,24.40
2023-04-22T07:51:25.012Z,24.38
2023-04-22T07:52:24.992Z,24.37
2023-04-22T07:53:25.000Z,24.37
2023-04-22T07:54:24.004Z,24.38
2023-04-22T07:55:25.012Z,24.37
2023-04-22T07:56:25.018Z,24.35
2023-04-22T07:57:25.026Z,24.38
2023-04-22T07:58:24.055Z,24.38
2023-04-22T07:59:24.055Z,24.37
2023-04-22T08:00:24.087Z,24.37
2023-04-22T08:01:24.102Z,24.37
2023-04-22T08:02:24.217Z,24.38
2023-04-22T08:03:24.358Z,24.40
2023-04-22T08:04:25.600Z,24.40
2023-04-22T08:05:24.174Z,24.38
2023-04-22T08:06:24.130Z,24.40
2023-04-22T08:07:32.556Z,24.35
2023-04-22T08:08:25.135Z,24.41
2023-04-22T08:09:25.118Z,24.38
2023-04-22T08:10:25.107Z,24.40
2023-04-22T08:11:24.108Z,24.41
2023-04-22T08:12:25.121Z,24.37
2023-04-22T08:13:25.098Z,24.38
2023-04-22T08:14:25.081Z,24.40
2023-04-22T08:15:24.076Z,24.40
2023-04-22T08:16:25.117Z,24.38
2023-04-22T08:17:24.118Z,24.40
2023-04-22T08:18:24.052Z,24.40
2023-04-22T08:19:25.055Z,24.40
2023-04-22T08:20:24.048Z,24.40
2023-04-22T08:21:24.058Z,24.43
2023-04-22T08:22:24.038Z,24.40
2023-04-22T08:23:24.025Z,24.43
2023-04-22T08:24:24.017Z,24.41
2023-04-22T08:25:25.019Z,24.41
2023-04-22T08:26:24.007Z,24.41
2023-04-22T08:27:23.991Z,24.40
2023-04-22T08:28:24.013Z,24.43
2023-04-22T08:29:24.984Z,24.41
2023-04-22T08:30:23.989Z,24.41
2023-04-22T08:31:24.011Z,24.41
2023-04-22T08:32:25.014Z,24.43
2023-04-22T08:33:25.885Z,24.40
2023-04-22T08:34:23.939Z,24.43
2023-04-22T08:35:24.947Z,24.46
2023-04-22T08:36:24.977Z,24.44
2023-04-22T08:37:23.948Z,24.44
2023-04-22T08:38:24.933Z,24.41
2023-04-22T08:39:24.918Z,24.44
2023-04-22T08:40:24.917Z,24.43
2023-04-22T08:41:24.945Z,24.43
2023-04-22T08:42:24.904Z,24.43
2023-04-22T08:43:24.894Z,24.41
2023-04-22T08:44:24.906Z,24.41
2023-04-22T08:45:23.877Z,24.43
2023-04-22T08:46:23.917Z,24.43
2023-04-22T08:47:23.863Z,24.41
2023-04-22T08:48:24.841Z,24.41
2023-04-22T08:49:23.859Z,24.44
2023-04-22T08:50:23.844Z,24.44
2023-04-22T08:51:23.843Z,24.41
2023-04-22T08:52:24.833Z,24.43
2023-04-22T08:53:25.128Z,24.43
2023-04-22T08:54:23.824Z,24.44
2023-04-22T08:55:23.806Z,24.46
2023-04-22T08:56:24.805Z,24.43
2023-04-22T08:57:23.792Z,24.41
2023-04-22T08:58:24.800Z,24.47
2023-04-22T08:59:23.803Z,24.44
2023-04-22T09:00:23.764Z,24.44
2023-04-22T09:01:23.759Z,24.47
2023-04-22T09:02:23.800Z,24.46
2023-04-22T09:03:24.843Z,24.46
2023-04-22T09:04:24.934Z,24.46
2023-04-22T09:05:24.725Z,24.43
2023-04-22T09:06:24.727Z,24.43
2023-04-22T09:07:23.727Z,24.41
2023-04-22T09:08:24.726Z,24.46
2023-04-22T09:09:23.701Z,24.46
2023-04-22T09:10:24.712Z,24.44
2023-04-22T09:11:23.692Z,24.46
2023-04-22T09:12:23.684Z,24.44
2023-04-22T09:13:23.693Z,24.46
2023-04-22T09:14:23.678Z,24.47
2023-04-22T09:15:23.682Z,24.46
2023-04-22T09:16:23.696Z,24.44
2023-04-22T09:17:24.710Z,24.48
2023-04-22T09:18:23.649Z,24.47
2023-04-22T09:19:23.625Z,24.47
2023-04-22T09:20:23.623Z,24.47
2023-04-22T09:21:24.637Z,24.47
2023-04-22T09:22:24.635Z,24.47
2023-04-22T09:23:23.620Z,24.47
2023-04-22T09:24:23.608Z,24.48
2023-04-22T09:25:24.618Z,24.46
2023-04-22T09:26:23.589Z,24.46
2023-04-22T09:27:24.599Z,24.46
2023-04-22T09:28:24.583Z,24.46
2023-04-22T09:29:24.565Z,24.47
2023-04-22T09:30:24.579Z,24.48
2023-04-22T09:31:24.617Z,24.48
2023-04-22T09:32:24.607Z,24.47
2023-04-22T09:33:23.547Z,24.48
2023-04-22T09:34:23.541Z,24.50
2023-04-22T09:35:23.524Z,24.50
2023-04-22T09:36:23.535Z,24.46
2023-04-22T09:37:25.116Z,24.48
2023-04-22T09:38:24.507Z,24.50
2023-04-22T09:39:24.508Z,24.48
2023-04-22T09:40:23.492Z,24.47
2023-04-22T09:41:24.501Z,24.47
2023-04-22T09:42:23.495Z,24.47
2023-04-22T09:43:24.476Z,24.50
2023-04-22T09:44:24.460Z,24.48
2023-04-22T09:45:24.456Z,24.48
2023-04-22T09:46:23.548Z,24.50
2023-04-22T09:47:23.515Z,24.50
2023-04-22T09:48:23.440Z,24.47
2023-04-22T09:49:24.435Z,24.50
2023-04-22T09:50:23.425Z,24.48
2023-04-22T09:51:23.448Z,24.51
2023-04-22T09:52:24.422Z,24.47
2023-04-22T09:53:24.422Z,24.48
2023-04-22T09:54:24.401Z,24.50
2023-04-22T09:55:23.384Z,24.51
2023-04-22T09:56:24.381Z,24.50
2023-04-22T09:57:23.368Z,24.50
2023-04-22T09:58:23.370Z,24.50
2023-04-22T09:59:24.359Z,24.48
2023-04-22T10:00:23.347Z,24.51
2023-04-22T10:01:24.379Z,24.50
2023-04-22T10:02:23.404Z,24.50
2023-04-22T10:03:23.388Z,24.51
2023-04-22T10:04:24.377Z,24.51
2023-04-22T10:05:24.188Z,24.51
2023-04-22T10:06:33.359Z,24.51
2023-04-22T10:07:24.301Z,24.50
2023-04-22T10:08:24.304Z,24.50
2023-04-22T10:09:24.331Z,24.51
2023-04-22T10:10:23.272Z,24.53
2023-04-22T10:11:23.279Z,24.51
2023-04-22T10:12:29.457Z,24.51
2023-04-22T10:13:24.254Z,24.48
2023-04-22T10:14:23.279Z,24.50
2023-04-22T10:15:24.916Z,24.50
2023-04-22T10:16:23.303Z,24.51
2023-04-22T10:17:24.411Z,24.53
2023-04-22T10:18:23.218Z,24.50
2023-04-22T10:19:24.228Z,24.51
2023-04-22T10:20:23.216Z,24.51
2023-04-22T10:21:25.251Z,24.50
2023-04-22T10:22:23.199Z,24.50
2023-04-22T10:23:23.187Z,24.53
2023-04-22T10:24:24.187Z,24.53
2023-04-22T10:25:24.185Z,24.48
2023-04-22T10:26:24.212Z,24.53
2023-04-22T10:27:23.256Z,24.51
2023-04-22T10:28:23.365Z,24.51
2023-04-22T10:29:24.211Z,24.51
2023-04-22T10:30:24.127Z,24.53
2023-04-22T10:31:24.196Z,24.53
2023-04-22T10:32:23.211Z,24.50
2023-04-22T10:33:23.109Z,24.53
2023-04-22T10:34:24.121Z,24.51
2023-04-22T10:35:23.107Z,24.53
2023-04-22T10:36:24.079Z,24.51
2023-04-22T10:37:24.136Z,24.51
2023-04-22T10:38:23.085Z,24.53
2023-04-22T10:39:24.079Z,24.51
2023-04-22T10:40:24.097Z,24.54
2023-04-22T10:41:24.109Z,24.54
2023-04-22T10:42:24.166Z,24.53
2023-04-22T10:43:24.080Z,24.53
2023-04-22T10:44:24.033Z,24.54
2023-04-22T10:45:24.034Z,24.53
2023-04-22T10:46:23.102Z,24.54
2023-04-22T10:47:23.062Z,24.54
2023-04-22T10:48:24.009Z,24.51
2023-04-22T10:49:24.012Z,24.53
2023-04-22T10:50:23.994Z,24.54
2023-04-22T10:51:22.992Z,24.54
2023-04-22T10:52:22.971Z,24.55
2023-04-22T10:53:23.988Z,24.55
2023-04-22T10:54:23.958Z,24.54
2023-04-22T10:55:23.990Z,24.54
2023-04-22T10:56:24.208Z,24.53
2023-04-22T10:57:23.008Z,24.55
2023-04-22T10:58:23.935Z,24.54
2023-04-22T10:59:23.931Z,24.55
2023-04-22T11:00:23.929Z,24.53
2023-04-22T11:01:23.918Z,24.55
2023-04-22T11:02:23.963Z,24.55
2023-04-22T11:03:24.100Z,24.54
2023-04-22T11:04:23.976Z,24.55
2023-04-22T11:05:25.336Z,24.55
2023-04-22T11:06:22.901Z,24.55
2023-04-22T11:07:22.928Z,24.53
2023-04-22T11:08:22.873Z,24.55
2023-04-22T11:09:23.865Z,24.55
2023-04-22T11:10:23.852Z,24.54
2023-04-22T11:11:23.851Z,24.54
2023-04-22T11:12:23.842Z,24.57
2023-04-22T11:13:23.868Z,24.57
2023-04-22T11:14:23.828Z,24.57
2023-04-22T11:15:22.894Z,24.58
2023-04-22T11:16:23.859Z,24.57
2023-04-22T11:17:22.868Z,24.55
2023-04-22T11:18:23.820Z,24.57
2023-04-22T11:19:23.799Z,24.57
2023-04-22T11:20:22.793Z,24.60
2023-04-22T11:21:22.780Z,24.58
2023-04-22T11:22:23.816Z,24.58
2023-04-22T11:23:22.772Z,24.60
2023-04-22T11:24:23.759Z,24.60
2023-04-22T11:25:24.082Z,24.58
2023-04-22T11:26:23.746Z,24.60
2023-04-22T11:27:23.740Z,24.60
2023-04-22T11:28:23.761Z,24.60
2023-04-22T11:29:23.785Z,24.63
2023-04-22T11:30:22.714Z,24.61
2023-04-22T11:31:23.721Z,24.61
2023-04-22T11:32:22.698Z,24.63
2023-04-22T11:33:23.711Z,24.61
2023-04-22T11:34:22.712Z,24.60
2023-04-22T11:35:23.809Z,24.61
2023-04-22T11:36:23.829Z,24.63
2023-04-22T11:37:23.881Z,24.63
2023-04-22T11:38:23.962Z,24.60
2023-04-22T11:39:24.008Z,24.65
2023-04-22T11:41:23.098Z,24.64
2023-04-22T11:42:23.045Z,24.64
2023-04-22T11:43:24.057Z,24.64
2023-04-22T11:44:24.065Z,24.64
2023-04-22T11:45:24.085Z,24.64
2023-04-22T11:46:24.051Z,24.64
2023-04-22T11:47:24.040Z,24.65
2023-04-22T11:48:24.025Z,24.64
2023-04-22T11:49:24.032Z,24.65
2023-04-22T11:50:24.006Z,24.67
2023-04-22T11:51:22.983Z,24.67
2023-04-22T11:52:23.977Z,24.65
2023-04-22T11:53:23.043Z,24.65
2023-04-22T11:54:24.080Z,24.67
2023-04-22T11:55:24.147Z,24.67
2023-04-22T11:56:24.202Z,24.65
2023-04-22T11:57:24.268Z,24.64
2023-04-22T11:58:23.320Z,24.67
2023-04-22T11:59:23.407Z,24.65
2023-04-22T12:00:24.460Z,24.67
2023-04-22T12:01:24.539Z,24.64
2023-04-22T12:02:24.722Z,24.64
2023-04-22T12:03:23.880Z,24.64
2023-04-22T12:04:24.785Z,24.65
2023-04-22T12:05:23.779Z,24.64
2023-04-22T12:06:23.836Z,24.65
2023-04-22T12:07:24.884Z,24.64
2023-04-22T12:08:24.973Z,24.65
2023-04-22T12:09:25.000Z,24.63
2023-04-22T12:10:25.074Z,24.67
2023-04-22T12:11:25.222Z,24.67
2023-04-22T12:12:24.189Z,24.61
2023-04-22T12:13:25.194Z,24.64
2023-04-22T12:14:24.212Z,24.67
2023-04-22T12:15:25.258Z,24.67
2023-04-22T12:16:24.336Z,24.63
2023-04-22T12:17:25.442Z,24.64
2023-04-22T12:18:25.445Z,24.64
2023-04-22T12:19:25.430Z,24.65
2023-04-22T12:20:25.438Z,24.64
2023-04-22T12:21:25.485Z,24.67
2023-04-22T12:22:25.515Z,24.64
2023-04-22T12:23:25.574Z,24.65
2023-04-22T12:24:25.672Z,24.64
2023-04-22T12:25:24.658Z,24.64
2023-04-22T12:26:26.898Z,24.61
2023-04-22T12:27:24.733Z,24.65
2023-04-22T12:28:24.774Z,24.64
2023-04-22T12:29:24.863Z,24.63
2023-04-22T12:30:24.878Z,24.63
2023-04-22T12:31:26.009Z,24.63
2023-04-22T12:32:25.066Z,24.63
2023-04-22T12:33:26.067Z,24.65
2023-04-22T12:34:25.078Z,24.63
2023-04-22T12:35:26.162Z,24.65
2023-04-22T12:36:25.205Z,24.64
2023-04-22T12:37:26.211Z,24.63
2023-04-22T12:38:25.233Z,24.64
2023-04-22T12:39:26.288Z,24.65
2023-04-22T12:40:25.313Z,24.64
2023-04-22T12:41:26.383Z,24.65
2023-04-22T12:42:26.420Z,24.65
2023-04-22T12:43:25.461Z,24.63
2023-04-22T12:44:26.518Z,24.64
2023-04-22T12:45:26.540Z,24.65
2023-04-22T12:46:26.604Z,24.65
2023-04-22T12:47:26.604Z,24.64
2023-04-22T12:48:26.616Z,24.63
2023-04-22T12:49:25.671Z,24.65
2023-04-22T12:50:26.678Z,24.65
2023-04-22T12:51:26.711Z,24.67
2023-04-22T12:52:26.799Z,24.65
2023-04-22T12:53:26.839Z,24.67